sensor_id;sensor_type;location;lat;lon;timestamp;temperature;humidity
49385;DHT22;36795;45.028;38.968;2023-12-07T00:01:32;4.30;87.80
49385;DHT22;36795;45.028;38.968;2023-12-07T00:04:19;4.20;87.80
49385;DHT22;36795;45.028;38.968;2023-12-07T00:07:05;4.20;87.80
49385;DHT22;36795;45.028;38.968;2023-12-07T00:09:51;4.30;87.80
49385;DHT22;36795;45.028;38.968;2023-12-07T00:12:37;4.20;87.80
49385;DHT22;36795;45.028;38.968;2023-12-07T00:15:23;4.20;87.90
49385;DHT22;36795;45.028;38.968;2023-12-07T00:18:10;4.20;87.90
49385;DHT22;36795;45.028;38.968;2023-12-07T00:20:56;4.30;88.00
49385;DHT22;36795;45.028;38.968;2023-12-07T00:23:42;4.30;88.00
49385;DHT22;36795;45.028;38.968;2023-12-07T00:26:28;4.30;88.00
49385;DHT22;36795;45.028;38.968;2023-12-07T00:29:14;4.30;88.00
49385;DHT22;36795;45.028;38.968;2023-12-07T00:32:00;4.30;88.00
49385;DHT22;36795;45.028;38.968;2023-12-07T00:34:47;4.30;88.00
49385;DHT22;36795;45.028;38.968;2023-12-07T00:37:35;4.20;88.00
49385;DHT22;36795;45.028;38.968;2023-12-07T00:40:20;4.30;88.20
49385;DHT22;36795;45.028;38.968;2023-12-07T00:43:07;4.30;88.20
49385;DHT22;36795;45.028;38.968;2023-12-07T00:45:53;4.20;88.10
49385;DHT22;36795;45.028;38.968;2023-12-07T00:48:40;4.20;88.10
49385;DHT22;36795;45.028;38.968;2023-12-07T00:51:26;4.20;88.20
49385;DHT22;36795;45.028;38.968;2023-12-07T00:54:12;4.20;88.30
49385;DHT22;36795;45.028;38.968;2023-12-07T00:56:59;4.30;88.30
49385;DHT22;36795;45.028;38.968;2023-12-07T00:59:45;4.20;88.30
49385;DHT22;36795;45.028;38.968;2023-12-07T01:02:31;4.30;88.40
49385;DHT22;36795;45.028;38.968;2023-12-07T01:05:17;4.20;88.40
49385;DHT22;36795;45.028;38.968;2023-12-07T01:08:02;4.30;88.50
49385;DHT22;36795;45.028;38.968;2023-12-07T01:10:49;4.30;88.40
49385;DHT22;36795;45.028;38.968;2023-12-07T01:13:35;4.30;88.40
49385;DHT22;36795;45.028;38.968;2023-12-07T01:16:22;4.30;88.50
49385;DHT22;36795;45.028;38.968;2023-12-07T01:19:08;4.30;88.50
49385;DHT22;36795;45.028;38.968;2023-12-07T01:21:54;4.30;88.50
49385;DHT22;36795;45.028;38.968;2023-12-07T01:24:40;4.30;88.50
49385;DHT22;36795;45.028;38.968;2023-12-07T01:27:26;4.30;88.50
49385;DHT22;36795;45.028;38.968;2023-12-07T01:30:12;4.30;88.50
49385;DHT22;36795;45.028;38.968;2023-12-07T01:32:58;4.30;88.60
49385;DHT22;36795;45.028;38.968;2023-12-07T01:35:43;4.40;88.60
49385;DHT22;36795;45.028;38.968;2023-12-07T01:38:30;4.30;88.50
49385;DHT22;36795;45.028;38.968;2023-12-07T01:41:15;4.40;88.60
49385;DHT22;36795;45.028;38.968;2023-12-07T01:44:02;4.40;88.60
49385;DHT22;36795;45.028;38.968;2023-12-07T01:46:49;4.40;89.20
49385;DHT22;36795;45.028;38.968;2023-12-07T01:49:35;4.40;88.80
49385;DHT22;36795;45.028;38.968;2023-12-07T01:52:23;4.40;88.80
49385;DHT22;36795;45.028;38.968;2023-12-07T01:55:10;4.40;88.90
49385;DHT22;36795;45.028;38.968;2023-12-07T01:57:56;4.40;88.80
49385;DHT22;36795;45.028;38.968;2023-12-07T02:00:43;4.40;88.70
49385;DHT22;36795;45.028;38.968;2023-12-07T02:03:31;4.40;88.80
49385;DHT22;36795;45.028;38.968;2023-12-07T02:06:17;4.40;88.90
49385;DHT22;36795;45.028;38.968;2023-12-07T02:09:03;4.40;88.80
49385;DHT22;36795;45.028;38.968;2023-12-07T02:11:49;4.40;88.90
49385;DHT22;36795;45.028;38.968;2023-12-07T02:14:35;4.40;88.80
49385;DHT22;36795;45.028;38.968;2023-12-07T02:17:45;4.40;88.90
49385;DHT22;36795;45.028;38.968;2023-12-07T02:20:39;4.40;88.90
49385;DHT22;36795;45.028;38.968;2023-12-07T02:23:29;4.40;88.90
49385;DHT22;36795;45.028;38.968;2023-12-07T02:26:18;4.40;89.00
49385;DHT22;36795;45.028;38.968;2023-12-07T02:29:04;4.40;88.90
49385;DHT22;36795;45.028;38.968;2023-12-07T02:31:50;4.40;88.80
49385;DHT22;36795;45.028;38.968;2023-12-07T02:34:36;4.40;88.90
49385;DHT22;36795;45.028;38.968;2023-12-07T02:37:24;4.30;88.90
49385;DHT22;36795;45.028;38.968;2023-12-07T02:40:16;4.40;89.10
49385;DHT22;36795;45.028;38.968;2023-12-07T02:43:03;4.30;89.10
49385;DHT22;36795;45.028;38.968;2023-12-07T02:45:50;4.30;89.00
49385;DHT22;36795;45.028;38.968;2023-12-07T02:48:37;4.30;89.10
49385;DHT22;36795;45.028;38.968;2023-12-07T02:51:23;4.30;89.10
49385;DHT22;36795;45.028;38.968;2023-12-07T02:54:09;4.30;89.20
49385;DHT22;36795;45.028;38.968;2023-12-07T02:56:55;4.30;89.10
49385;DHT22;36795;45.028;38.968;2023-12-07T02:59:41;4.30;89.10
49385;DHT22;36795;45.028;38.968;2023-12-07T03:02:27;4.30;89.00
49385;DHT22;36795;45.028;38.968;2023-12-07T03:05:13;4.30;89.10
49385;DHT22;36795;45.028;38.968;2023-12-07T03:07:59;4.30;89.10
49385;DHT22;36795;45.028;38.968;2023-12-07T03:10:45;4.20;89.10
49385;DHT22;36795;45.028;38.968;2023-12-07T03:13:31;4.20;89.10
49385;DHT22;36795;45.028;38.968;2023-12-07T03:16:17;4.20;89.10
49385;DHT22;36795;45.028;38.968;2023-12-07T03:19:04;4.10;89.00
49385;DHT22;36795;45.028;38.968;2023-12-07T03:21:49;4.10;89.10
49385;DHT22;36795;45.028;38.968;2023-12-07T03:24:36;4.10;89.20
49385;DHT22;36795;45.028;38.968;2023-12-07T03:27:23;4.10;89.30
49385;DHT22;36795;45.028;38.968;2023-12-07T03:30:09;4.10;89.20
49385;DHT22;36795;45.028;38.968;2023-12-07T03:32:55;4.10;89.20
49385;DHT22;36795;45.028;38.968;2023-12-07T03:35:42;4.10;89.20
49385;DHT22;36795;45.028;38.968;2023-12-07T03:38:28;4.10;89.20
49385;DHT22;36795;45.028;38.968;2023-12-07T03:41:14;4.10;89.30
49385;DHT22;36795;45.028;38.968;2023-12-07T03:44:00;4.00;89.30
49385;DHT22;36795;45.028;38.968;2023-12-07T03:46:46;4.00;89.30
49385;DHT22;36795;45.028;38.968;2023-12-07T03:49:32;4.00;89.30
49385;DHT22;36795;45.028;38.968;2023-12-07T03:52:18;4.00;89.30
49385;DHT22;36795;45.028;38.968;2023-12-07T03:55:05;4.10;89.40
49385;DHT22;36795;45.028;38.968;2023-12-07T03:57:52;4.10;89.40
49385;DHT22;36795;45.028;38.968;2023-12-07T04:00:37;4.10;89.40
49385;DHT22;36795;45.028;38.968;2023-12-07T04:03:23;4.10;89.40
49385;DHT22;36795;45.028;38.968;2023-12-07T04:06:09;4.10;89.30
49385;DHT22;36795;45.028;38.968;2023-12-07T04:08:55;4.10;89.20
49385;DHT22;36795;45.028;38.968;2023-12-07T04:11:41;4.10;89.20
49385;DHT22;36795;45.028;38.968;2023-12-07T04:14:28;4.10;89.20
49385;DHT22;36795;45.028;38.968;2023-12-07T04:17:13;4.20;89.20
49385;DHT22;36795;45.028;38.968;2023-12-07T04:20:00;4.10;89.10
49385;DHT22;36795;45.028;38.968;2023-12-07T04:22:46;4.10;89.10
49385;DHT22;36795;45.028;38.968;2023-12-07T04:25:33;4.10;89.10
49385;DHT22;36795;45.028;38.968;2023-12-07T04:28:18;4.10;89.10
49385;DHT22;36795;45.028;38.968;2023-12-07T04:31:05;4.20;89.10
49385;DHT22;36795;45.028;38.968;2023-12-07T04:33:50;4.20;89.10
49385;DHT22;36795;45.028;38.968;2023-12-07T04:36:37;4.20;89.00
49385;DHT22;36795;45.028;38.968;2023-12-07T04:39:22;4.10;88.90
49385;DHT22;36795;45.028;38.968;2023-12-07T04:42:09;4.20;89.00
49385;DHT22;36795;45.028;38.968;2023-12-07T04:44:54;4.20;88.90
49385;DHT22;36795;45.028;38.968;2023-12-07T04:47:40;4.20;88.90
49385;DHT22;36795;45.028;38.968;2023-12-07T04:50:27;4.30;89.40
49385;DHT22;36795;45.028;38.968;2023-12-07T04:53:13;4.40;89.20
49385;DHT22;36795;45.028;38.968;2023-12-07T04:56:02;4.40;88.90
49385;DHT22;36795;45.028;38.968;2023-12-07T04:58:49;4.40;88.80
49385;DHT22;36795;45.028;38.968;2023-12-07T05:01:38;4.40;88.60
49385;DHT22;36795;45.028;38.968;2023-12-07T05:04:26;4.40;88.40
49385;DHT22;36795;45.028;38.968;2023-12-07T05:07:13;4.50;88.40
49385;DHT22;36795;45.028;38.968;2023-12-07T05:10:10;4.50;88.30
49385;DHT22;36795;45.028;38.968;2023-12-07T05:13:24;4.50;88.30
49385;DHT22;36795;45.028;38.968;2023-12-07T05:16:21;4.50;88.20
49385;DHT22;36795;45.028;38.968;2023-12-07T05:19:21;4.50;88.00
49385;DHT22;36795;45.028;38.968;2023-12-07T05:22:07;4.50;87.90
49385;DHT22;36795;45.028;38.968;2023-12-07T05:24:53;4.50;87.80
49385;DHT22;36795;45.028;38.968;2023-12-07T05:27:40;4.60;87.50
49385;DHT22;36795;45.028;38.968;2023-12-07T05:30:26;4.60;87.60
49385;DHT22;36795;45.028;38.968;2023-12-07T05:33:13;4.70;87.50
49385;DHT22;36795;45.028;38.968;2023-12-07T05:35:59;4.80;87.40
49385;DHT22;36795;45.028;38.968;2023-12-07T05:38:46;4.80;87.00
49385;DHT22;36795;45.028;38.968;2023-12-07T05:41:32;4.90;86.70
49385;DHT22;36795;45.028;38.968;2023-12-07T05:44:19;4.90;86.70
49385;DHT22;36795;45.028;38.968;2023-12-07T05:47:07;5.00;86.30
49385;DHT22;36795;45.028;38.968;2023-12-07T05:49:54;5.00;85.90
49385;DHT22;36795;45.028;38.968;2023-12-07T05:52:42;5.00;86.00
49385;DHT22;36795;45.028;38.968;2023-12-07T05:55:29;5.10;85.90
49385;DHT22;36795;45.028;38.968;2023-12-07T05:58:15;5.20;85.60
49385;DHT22;36795;45.028;38.968;2023-12-07T06:01:02;5.30;85.20
49385;DHT22;36795;45.028;38.968;2023-12-07T06:03:48;5.30;84.80
49385;DHT22;36795;45.028;38.968;2023-12-07T06:06:34;5.40;84.90
49385;DHT22;36795;45.028;38.968;2023-12-07T06:09:20;5.40;84.50
49385;DHT22;36795;45.028;38.968;2023-12-07T06:12:06;5.50;84.90
49385;DHT22;36795;45.028;38.968;2023-12-07T06:14:53;5.50;83.80
49385;DHT22;36795;45.028;38.968;2023-12-07T06:17:39;5.60;83.50
49385;DHT22;36795;45.028;38.968;2023-12-07T06:20:25;5.70;83.70
49385;DHT22;36795;45.028;38.968;2023-12-07T06:23:12;6.00;83.00
49385;DHT22;36795;45.028;38.968;2023-12-07T06:25:59;6.30;82.80
49385;DHT22;36795;45.028;38.968;2023-12-07T06:28:44;6.60;81.80
49385;DHT22;36795;45.028;38.968;2023-12-07T06:31:31;7.10;81.00
49385;DHT22;36795;45.028;38.968;2023-12-07T06:34:17;7.30;79.10
49385;DHT22;36795;45.028;38.968;2023-12-07T06:37:03;7.30;78.70
49385;DHT22;36795;45.028;38.968;2023-12-07T06:39:49;7.40;78.50
49385;DHT22;36795;45.028;38.968;2023-12-07T06:42:35;7.60;77.80
49385;DHT22;36795;45.028;38.968;2023-12-07T06:45:22;7.70;77.10
49385;DHT22;36795;45.028;38.968;2023-12-07T06:48:08;7.80;75.80
49385;DHT22;36795;45.028;38.968;2023-12-07T06:50:54;7.40;76.00
49385;DHT22;36795;45.028;38.968;2023-12-07T06:53:41;7.40;76.20
49385;DHT22;36795;45.028;38.968;2023-12-07T06:56:28;7.60;76.50
49385;DHT22;36795;45.028;38.968;2023-12-07T06:59:15;7.80;76.50
49385;DHT22;36795;45.028;38.968;2023-12-07T07:02:02;8.40;75.40
49385;DHT22;36795;45.028;38.968;2023-12-07T07:04:49;9.00;73.90
49385;DHT22;36795;45.028;38.968;2023-12-07T07:07:35;9.30;72.70
49385;DHT22;36795;45.028;38.968;2023-12-07T07:10:22;9.50;71.70
49385;DHT22;36795;45.028;38.968;2023-12-07T07:13:08;9.50;71.00
49385;DHT22;36795;45.028;38.968;2023-12-07T07:15:55;9.50;71.60
49385;DHT22;36795;45.028;38.968;2023-12-07T07:18:41;9.30;70.20
49385;DHT22;36795;45.028;38.968;2023-12-07T07:21:28;8.80;71.10
49385;DHT22;36795;45.028;38.968;2023-12-07T07:24:14;8.40;71.40
49385;DHT22;36795;45.028;38.968;2023-12-07T07:27:01;8.10;72.10
49385;DHT22;36795;45.028;38.968;2023-12-07T07:29:58;7.90;72.80
49385;DHT22;36795;45.028;38.968;2023-12-07T07:32:45;7.80;73.30
49385;DHT22;36795;45.028;38.968;2023-12-07T07:35:31;8.30;74.10
49385;DHT22;36795;45.028;38.968;2023-12-07T07:38:17;8.90;71.70
49385;DHT22;36795;45.028;38.968;2023-12-07T07:41:03;9.10;71.00
49385;DHT22;36795;45.028;38.968;2023-12-07T07:43:50;9.00;70.70
49385;DHT22;36795;45.028;38.968;2023-12-07T07:46:36;9.10;70.20
49385;DHT22;36795;45.028;38.968;2023-12-07T07:49:23;9.10;70.40
49385;DHT22;36795;45.028;38.968;2023-12-07T07:52:11;9.10;69.90
49385;DHT22;36795;45.028;38.968;2023-12-07T07:54:58;9.10;70.10
49385;DHT22;36795;45.028;38.968;2023-12-07T07:57:45;9.10;69.80
49385;DHT22;36795;45.028;38.968;2023-12-07T08:00:31;9.10;69.80
49385;DHT22;36795;45.028;38.968;2023-12-07T08:03:18;9.10;69.80
49385;DHT22;36795;45.028;38.968;2023-12-07T08:06:06;9.10;69.80
49385;DHT22;36795;45.028;38.968;2023-12-07T08:08:52;9.00;69.50
49385;DHT22;36795;45.028;38.968;2023-12-07T08:11:37;9.10;70.10
49385;DHT22;36795;45.028;38.968;2023-12-07T08:14:24;9.50;69.70
49385;DHT22;36795;45.028;38.968;2023-12-07T08:17:10;9.60;68.80
49385;DHT22;36795;45.028;38.968;2023-12-07T08:19:56;9.70;68.90
49385;DHT22;36795;45.028;38.968;2023-12-07T08:22:44;9.70;68.40
49385;DHT22;36795;45.028;38.968;2023-12-07T08:25:31;9.70;68.20
49385;DHT22;36795;45.028;38.968;2023-12-07T08:28:19;9.70;68.20
49385;DHT22;36795;45.028;38.968;2023-12-07T08:31:06;9.70;68.80
49385;DHT22;36795;45.028;38.968;2023-12-07T08:33:52;9.80;68.50
49385;DHT22;36795;45.028;38.968;2023-12-07T08:36:39;9.80;67.60
49385;DHT22;36795;45.028;38.968;2023-12-07T08:39:24;9.50;68.30
49385;DHT22;36795;45.028;38.968;2023-12-07T08:42:11;9.60;68.60
49385;DHT22;36795;45.028;38.968;2023-12-07T08:44:58;9.50;68.50
49385;DHT22;36795;45.028;38.968;2023-12-07T08:47:47;9.50;68.60
49385;DHT22;36795;45.028;38.968;2023-12-07T08:50:34;9.50;68.40
49385;DHT22;36795;45.028;38.968;2023-12-07T08:53:24;9.40;68.50
49385;DHT22;36795;45.028;38.968;2023-12-07T08:56:15;9.60;69.10
49385;DHT22;36795;45.028;38.968;2023-12-07T08:59:02;9.80;67.50
49385;DHT22;36795;45.028;38.968;2023-12-07T09:01:48;9.60;67.70
49385;DHT22;36795;45.028;38.968;2023-12-07T09:04:35;9.50;68.00
49385;DHT22;36795;45.028;38.968;2023-12-07T09:07:21;9.40;68.30
49385;DHT22;36795;45.028;38.968;2023-12-07T09:10:08;9.20;68.50
49385;DHT22;36795;45.028;38.968;2023-12-07T09:12:54;9.20;69.20
49385;DHT22;36795;45.028;38.968;2023-12-07T09:15:41;9.30;69.10
49385;DHT22;36795;45.028;38.968;2023-12-07T09:18:28;9.60;68.90
49385;DHT22;36795;45.028;38.968;2023-12-07T09:21:14;9.90;67.80
49385;DHT22;36795;45.028;38.968;2023-12-07T09:24:00;10.00;67.40
49385;DHT22;36795;45.028;38.968;2023-12-07T09:26:46;10.50;66.90
49385;DHT22;36795;45.028;38.968;2023-12-07T09:29:33;10.80;65.20
49385;DHT22;36795;45.028;38.968;2023-12-07T09:32:19;10.70;65.30
49385;DHT22;36795;45.028;38.968;2023-12-07T09:35:09;10.50;65.00
49385;DHT22;36795;45.028;38.968;2023-12-07T09:38:05;10.50;65.50
49385;DHT22;36795;45.028;38.968;2023-12-07T09:40:55;10.40;65.50
49385;DHT22;36795;45.028;38.968;2023-12-07T09:43:44;10.10;65.70
49385;DHT22;36795;45.028;38.968;2023-12-07T09:46:30;9.80;66.80
49385;DHT22;36795;45.028;38.968;2023-12-07T09:49:17;9.60;67.10
49385;DHT22;36795;45.028;38.968;2023-12-07T09:52:03;9.40;67.60
49385;DHT22;36795;45.028;38.968;2023-12-07T09:54:51;9.30;68.30
49385;DHT22;36795;45.028;38.968;2023-12-07T09:57:39;9.30;68.30
49385;DHT22;36795;45.028;38.968;2023-12-07T10:00:25;9.10;69.40
49385;DHT22;36795;45.028;38.968;2023-12-07T10:03:21;9.10;69.10
49385;DHT22;36795;45.028;38.968;2023-12-07T10:06:08;9.00;69.30
49385;DHT22;36795;45.028;38.968;2023-12-07T10:09:03;8.90;69.60
49385;DHT22;36795;45.028;38.968;2023-12-07T10:11:50;8.80;70.20
49385;DHT22;36795;45.028;38.968;2023-12-07T10:14:47;8.80;70.40
49385;DHT22;36795;45.028;38.968;2023-12-07T10:18:12;8.70;70.70
49385;DHT22;36795;45.028;38.968;2023-12-07T10:20:59;8.70;70.80
49385;DHT22;36795;45.028;38.968;2023-12-07T10:23:45;8.60;71.10
49385;DHT22;36795;45.028;38.968;2023-12-07T10:26:33;8.50;71.60
49385;DHT22;36795;45.028;38.968;2023-12-07T10:29:21;8.50;71.90
49385;DHT22;36795;45.028;38.968;2023-12-07T10:32:10;8.40;71.80
49385;DHT22;36795;45.028;38.968;2023-12-07T10:34:56;8.40;72.00
49385;DHT22;36795;45.028;38.968;2023-12-07T10:37:46;8.30;72.40
49385;DHT22;36795;45.028;38.968;2023-12-07T10:40:32;8.30;72.70
49385;DHT22;36795;45.028;38.968;2023-12-07T10:43:19;8.20;73.00
49385;DHT22;36795;45.028;38.968;2023-12-07T10:46:09;8.20;73.40
49385;DHT22;36795;45.028;38.968;2023-12-07T10:49:00;8.20;73.50
49385;DHT22;36795;45.028;38.968;2023-12-07T10:51:58;8.20;73.30
49385;DHT22;36795;45.028;38.968;2023-12-07T10:57:33;8.20;73.80
49385;DHT22;36795;45.028;38.968;2023-12-07T11:00:22;8.20;74.00
49385;DHT22;36795;45.028;38.968;2023-12-07T11:03:17;8.20;74.00
49385;DHT22;36795;45.028;38.968;2023-12-07T11:06:04;8.20;74.10
49385;DHT22;36795;45.028;38.968;2023-12-07T11:08:56;8.30;74.20
49385;DHT22;36795;45.028;38.968;2023-12-07T11:11:57;8.30;74.00
49385;DHT22;36795;45.028;38.968;2023-12-07T11:14:45;8.40;74.20
49385;DHT22;36795;45.028;38.968;2023-12-07T11:17:50;8.40;74.00
49385;DHT22;36795;45.028;38.968;2023-12-07T11:20:41;8.40;74.00
49385;DHT22;36795;45.028;38.968;2023-12-07T11:23:28;8.40;74.30
49385;DHT22;36795;45.028;38.968;2023-12-07T11:26:14;8.50;74.40
49385;DHT22;36795;45.028;38.968;2023-12-07T11:29:06;8.50;74.20
49385;DHT22;36795;45.028;38.968;2023-12-07T11:31:56;8.50;74.20
49385;DHT22;36795;45.028;38.968;2023-12-07T11:34:44;8.50;74.20
49385;DHT22;36795;45.028;38.968;2023-12-07T11:38:02;8.40;74.40
49385;DHT22;36795;45.028;38.968;2023-12-07T11:40:56;8.30;74.50
49385;DHT22;36795;45.028;38.968;2023-12-07T11:43:42;8.40;74.90
49385;DHT22;36795;45.028;38.968;2023-12-07T11:46:30;8.40;74.80
49385;DHT22;36795;45.028;38.968;2023-12-07T11:49:16;8.40;74.90
49385;DHT22;36795;45.028;38.968;2023-12-07T11:55:00;8.50;74.80
49385;DHT22;36795;45.028;38.968;2023-12-07T11:57:47;8.50;74.70
49385;DHT22;36795;45.028;38.968;2023-12-07T12:00:33;8.40;74.70
49385;DHT22;36795;45.028;38.968;2023-12-07T12:03:20;8.30;75.10
49385;DHT22;36795;45.028;38.968;2023-12-07T12:06:07;8.30;75.20
49385;DHT22;36795;45.028;38.968;2023-12-07T12:08:56;8.30;75.30
49385;DHT22;36795;45.028;38.968;2023-12-07T12:11:49;8.30;75.50
49385;DHT22;36795;45.028;38.968;2023-12-07T12:14:35;8.30;75.70
49385;DHT22;36795;45.028;38.968;2023-12-07T12:17:21;8.30;75.80
49385;DHT22;36795;45.028;38.968;2023-12-07T12:20:08;8.40;75.70
49385;DHT22;36795;45.028;38.968;2023-12-07T12:22:56;8.40;75.60
49385;DHT22;36795;45.028;38.968;2023-12-07T12:25:42;8.40;75.70
49385;DHT22;36795;45.028;38.968;2023-12-07T12:28:32;8.40;75.80
49385;DHT22;36795;45.028;38.968;2023-12-07T12:31:22;8.50;75.90
49385;DHT22;36795;45.028;38.968;2023-12-07T12:34:15;8.40;75.90
49385;DHT22;36795;45.028;38.968;2023-12-07T12:37:04;8.40;76.10
49385;DHT22;36795;45.028;38.968;2023-12-07T12:39:51;8.40;76.20
49385;DHT22;36795;45.028;38.968;2023-12-07T12:42:39;8.50;76.20
49385;DHT22;36795;45.028;38.968;2023-12-07T12:45:28;8.40;76.80
49385;DHT22;36795;45.028;38.968;2023-12-07T12:48:15;8.40;76.40
49385;DHT22;36795;45.028;38.968;2023-12-07T12:51:14;8.30;76.70
49385;DHT22;36795;45.028;38.968;2023-12-07T12:54:00;8.20;77.00
49385;DHT22;36795;45.028;38.968;2023-12-07T12:56:47;8.20;77.10
49385;DHT22;36795;45.028;38.968;2023-12-07T12:59:34;8.20;77.30
49385;DHT22;36795;45.028;38.968;2023-12-07T13:02:22;8.10;77.50
49385;DHT22;36795;45.028;38.968;2023-12-07T13:05:17;8.10;77.60
49385;DHT22;36795;45.028;38.968;2023-12-07T13:08:04;8.20;77.90
49385;DHT22;36795;45.028;38.968;2023-12-07T13:10:52;8.10;77.80
49385;DHT22;36795;45.028;38.968;2023-12-07T13:13:45;8.10;77.90
49385;DHT22;36795;45.028;38.968;2023-12-07T13:16:33;8.10;78.10
49385;DHT22;36795;45.028;38.968;2023-12-07T13:19:18;8.10;78.20
49385;DHT22;36795;45.028;38.968;2023-12-07T13:22:06;8.00;78.30
49385;DHT22;36795;45.028;38.968;2023-12-07T13:24:54;8.00;78.40
49385;DHT22;36795;45.028;38.968;2023-12-07T13:27:41;8.00;78.40
49385;DHT22;36795;45.028;38.968;2023-12-07T13:30:28;8.00;78.50
49385;DHT22;36795;45.028;38.968;2023-12-07T13:33:19;8.00;78.60
49385;DHT22;36795;45.028;38.968;2023-12-07T13:36:06;8.00;78.70
49385;DHT22;36795;45.028;38.968;2023-12-07T13:38:53;7.90;78.80
49385;DHT22;36795;45.028;38.968;2023-12-07T13:41:39;7.90;79.00
49385;DHT22;36795;45.028;38.968;2023-12-07T13:44:25;7.80;78.90
49385;DHT22;36795;45.028;38.968;2023-12-07T13:47:11;7.80;79.00
49385;DHT22;36795;45.028;38.968;2023-12-07T13:49:58;7.80;78.90
49385;DHT22;36795;45.028;38.968;2023-12-07T13:52:44;7.70;79.00
49385;DHT22;36795;45.028;38.968;2023-12-07T13:55:31;7.70;79.20
49385;DHT22;36795;45.028;38.968;2023-12-07T13:58:17;7.60;79.40
49385;DHT22;36795;45.028;38.968;2023-12-07T14:01:04;7.60;80.00
49385;DHT22;36795;45.028;38.968;2023-12-07T14:03:51;7.50;79.50
49385;DHT22;36795;45.028;38.968;2023-12-07T14:06:37;7.50;79.60
49385;DHT22;36795;45.028;38.968;2023-12-07T14:09:24;7.40;79.50
49385;DHT22;36795;45.028;38.968;2023-12-07T14:12:11;7.40;79.80
49385;DHT22;36795;45.028;38.968;2023-12-07T14:15:08;7.30;80.00
49385;DHT22;36795;45.028;38.968;2023-12-07T14:18:06;7.30;80.10
49385;DHT22;36795;45.028;38.968;2023-12-07T14:21:07;7.20;80.20
49385;DHT22;36795;45.028;38.968;2023-12-07T14:24:11;7.20;80.40
49385;DHT22;36795;45.028;38.968;2023-12-07T14:27:06;7.20;80.40
49385;DHT22;36795;45.028;38.968;2023-12-07T14:29:54;7.20;80.50
49385;DHT22;36795;45.028;38.968;2023-12-07T14:32:40;7.10;80.50
49385;DHT22;36795;45.028;38.968;2023-12-07T14:35:37;7.10;80.70
49385;DHT22;36795;45.028;38.968;2023-12-07T14:38:23;7.10;80.70
49385;DHT22;36795;45.028;38.968;2023-12-07T14:41:09;7.00;80.60
49385;DHT22;36795;45.028;38.968;2023-12-07T14:43:58;7.00;80.70
49385;DHT22;36795;45.028;38.968;2023-12-07T14:46:46;7.00;80.60
49385;DHT22;36795;45.028;38.968;2023-12-07T14:49:32;7.00;80.70
49385;DHT22;36795;45.028;38.968;2023-12-07T14:52:18;6.90;80.50
49385;DHT22;36795;45.028;38.968;2023-12-07T14:55:06;7.00;80.50
49385;DHT22;36795;45.028;38.968;2023-12-07T14:57:52;6.90;80.30
49385;DHT22;36795;45.028;38.968;2023-12-07T15:00:39;6.90;80.40
49385;DHT22;36795;45.028;38.968;2023-12-07T15:03:26;6.90;80.50
49385;DHT22;36795;45.028;38.968;2023-12-07T15:06:12;6.80;80.40
49385;DHT22;36795;45.028;38.968;2023-12-07T15:09:00;6.80;80.30
49385;DHT22;36795;45.028;38.968;2023-12-07T15:11:46;6.80;80.40
49385;DHT22;36795;45.028;38.968;2023-12-07T15:14:32;6.80;80.40
49385;DHT22;36795;45.028;38.968;2023-12-07T15:17:19;6.70;80.30
49385;DHT22;36795;45.028;38.968;2023-12-07T15:20:06;6.70;80.50
49385;DHT22;36795;45.028;38.968;2023-12-07T15:22:52;6.70;80.30
49385;DHT22;36795;45.028;38.968;2023-12-07T15:25:38;6.60;80.30
49385;DHT22;36795;45.028;38.968;2023-12-07T15:28:25;6.60;80.30
49385;DHT22;36795;45.028;38.968;2023-12-07T15:31:10;6.60;80.40
49385;DHT22;36795;45.028;38.968;2023-12-07T15:33:57;6.60;80.40
49385;DHT22;36795;45.028;38.968;2023-12-07T15:36:43;6.50;80.30
49385;DHT22;36795;45.028;38.968;2023-12-07T15:39:29;6.50;80.30
49385;DHT22;36795;45.028;38.968;2023-12-07T15:42:15;6.40;80.20
49385;DHT22;36795;45.028;38.968;2023-12-07T15:45:02;6.40;80.40
49385;DHT22;36795;45.028;38.968;2023-12-07T15:47:48;6.30;80.50
49385;DHT22;36795;45.028;38.968;2023-12-07T15:50:34;6.30;80.70
49385;DHT22;36795;45.028;38.968;2023-12-07T15:53:20;6.20;80.70
49385;DHT22;36795;45.028;38.968;2023-12-07T15:56:07;6.10;80.70
49385;DHT22;36795;45.028;38.968;2023-12-07T15:58:53;6.10;80.90
49385;DHT22;36795;45.028;38.968;2023-12-07T16:01:40;6.00;80.90
49385;DHT22;36795;45.028;38.968;2023-12-07T16:04:26;6.00;81.00
49385;DHT22;36795;45.028;38.968;2023-12-07T16:07:12;6.00;81.30
49385;DHT22;36795;45.028;38.968;2023-12-07T16:09:58;6.00;81.30
49385;DHT22;36795;45.028;38.968;2023-12-07T16:12:44;5.90;81.20
49385;DHT22;36795;45.028;38.968;2023-12-07T16:15:32;5.90;81.30
49385;DHT22;36795;45.028;38.968;2023-12-07T16:18:20;5.80;81.30
49385;DHT22;36795;45.028;38.968;2023-12-07T16:21:06;5.80;81.50
49385;DHT22;36795;45.028;38.968;2023-12-07T16:23:56;5.80;81.50
49385;DHT22;36795;45.028;38.968;2023-12-07T16:26:48;5.70;81.50
49385;DHT22;36795;45.028;38.968;2023-12-07T16:29:36;5.70;81.50
49385;DHT22;36795;45.028;38.968;2023-12-07T16:32:22;5.60;81.70
49385;DHT22;36795;45.028;38.968;2023-12-07T16:35:10;5.70;81.80
49385;DHT22;36795;45.028;38.968;2023-12-07T16:37:57;5.70;81.80
49385;DHT22;36795;45.028;38.968;2023-12-07T16:40:43;5.60;81.60
49385;DHT22;36795;45.028;38.968;2023-12-07T16:43:29;5.60;81.60
49385;DHT22;36795;45.028;38.968;2023-12-07T16:46:15;5.60;81.60
49385;DHT22;36795;45.028;38.968;2023-12-07T16:49:02;5.60;81.60
49385;DHT22;36795;45.028;38.968;2023-12-07T16:51:48;5.60;81.70
49385;DHT22;36795;45.028;38.968;2023-12-07T16:54:35;5.60;81.60
49385;DHT22;36795;45.028;38.968;2023-12-07T16:57:21;5.50;81.60
49385;DHT22;36795;45.028;38.968;2023-12-07T17:00:09;5.50;81.70
49385;DHT22;36795;45.028;38.968;2023-12-07T17:02:56;5.50;81.90
49385;DHT22;36795;45.028;38.968;2023-12-07T17:05:44;5.50;81.80
49385;DHT22;36795;45.028;38.968;2023-12-07T17:08:31;5.50;81.80
49385;DHT22;36795;45.028;38.968;2023-12-07T17:11:18;5.40;81.80
49385;DHT22;36795;45.028;38.968;2023-12-07T17:14:04;5.40;81.80
49385;DHT22;36795;45.028;38.968;2023-12-07T17:16:51;5.30;81.90
49385;DHT22;36795;45.028;38.968;2023-12-07T17:19:38;5.30;82.00
49385;DHT22;36795;45.028;38.968;2023-12-07T17:22:25;5.30;82.00
49385;DHT22;36795;45.028;38.968;2023-12-07T17:25:11;5.30;82.10
49385;DHT22;36795;45.028;38.968;2023-12-07T17:28:01;5.30;82.00
49385;DHT22;36795;45.028;38.968;2023-12-07T17:30:47;5.30;82.10
49385;DHT22;36795;45.028;38.968;2023-12-07T17:33:34;5.20;82.20
49385;DHT22;36795;45.028;38.968;2023-12-07T17:36:20;5.20;82.20
49385;DHT22;36795;45.028;38.968;2023-12-07T17:39:07;5.20;82.30
49385;DHT22;36795;45.028;38.968;2023-12-07T17:41:53;5.20;82.40
49385;DHT22;36795;45.028;38.968;2023-12-07T17:44:42;5.20;82.50